createdAt,value
2023-03-10T00:00:41.462Z,60.84
2023-03-10T00:03:09.300Z,60.56
2023-03-10T00:05:38.364Z,60.59
2023-03-10T00:08:07.059Z,60.77
2023-03-10T00:10:34.813Z,60.92
2023-03-10T00:13:03.985Z,60.83
2023-03-10T00:15:32.580Z,60.91
2023-03-10T00:18:00.381Z,60.46
2023-03-10T00:20:28.450Z,60.62
2023-03-10T00:22:56.217Z,60.68
2023-03-10T00:25:23.932Z,60.80
2023-03-10T00:27:52.635Z,60.87
2023-03-10T00:30:21.858Z,60.78
2023-03-10T00:32:50.798Z,60.96
2023-03-10T00:35:19.079Z,61.09
2023-03-10T00:37:47.348Z,60.80
2023-03-10T00:40:16.656Z,60.83
2023-03-10T00:42:44.960Z,61.02
2023-03-10T00:45:12.852Z,60.78
2023-03-10T00:47:41.998Z,60.85
2023-03-10T00:50:11.341Z,60.45
2023-03-10T00:52:39.202Z,60.83
2023-03-10T00:55:07.489Z,60.53
2023-03-10T00:57:38.294Z,60.44
2023-03-10T01:00:08.230Z,60.48
2023-03-10T01:02:35.948Z,60.73
2023-03-10T01:05:05.532Z,60.29
2023-03-10T01:07:33.697Z,60.73
2023-03-10T01:10:01.520Z,60.88
2023-03-10T01:12:29.265Z,60.98
2023-03-10T01:14:57.024Z,60.96
2023-03-10T01:17:24.893Z,60.68
2023-03-10T01:19:52.599Z,60.64
2023-03-10T01:22:21.678Z,60.49
2023-03-10T01:24:49.428Z,60.62
2023-03-10T01:27:17.414Z,60.69
2023-03-10T01:29:45.218Z,61.08
2023-03-10T01:32:12.983Z,60.68
2023-03-10T01:34:40.753Z,60.77
2023-03-10T01:37:08.460Z,60.39
2023-03-10T01:39:37.619Z,60.98
2023-03-10T01:42:05.811Z,60.65
2023-03-10T01:44:33.891Z,60.89
2023-03-10T01:47:01.864Z,60.62
2023-03-10T01:49:40.518Z,60.81
2023-03-10T01:52:13.709Z,60.32
2023-03-10T01:54:49.501Z,60.28
2023-03-10T01:57:21.891Z,60.47
2023-03-10T01:59:49.996Z,60.54
2023-03-10T02:02:18.607Z,60.45
2023-03-10T02:04:49.458Z,60.15
2023-03-10T02:07:26.006Z,60.70
2023-03-10T02:09:57.801Z,60.44
2023-03-10T02:12:25.860Z,60.18
2023-03-10T02:14:54.479Z,60.21
2023-03-10T02:17:25.359Z,60.50
2023-03-10T02:20:20.318Z,60.49
2023-03-10T02:22:49.190Z,60.42
2023-03-10T02:25:30.338Z,60.71
2023-03-10T02:28:00.625Z,60.48
2023-03-10T02:30:32.947Z,60.50
2023-03-10T02:33:03.888Z,60.38
2023-03-10T02:35:31.670Z,60.11
2023-03-10T02:38:04.654Z,61.16
2023-03-10T02:40:37.498Z,60.57
2023-03-10T02:43:19.702Z,60.14
2023-03-10T02:45:52.693Z,60.27
2023-03-10T02:48:28.182Z,60.52
2023-03-10T02:50:57.665Z,60.09
2023-03-10T02:53:27.891Z,60.31
2023-03-10T02:55:56.499Z,60.27
2023-03-10T02:58:26.793Z,60.32
2023-03-10T03:00:55.731Z,60.40
2023-03-10T03:03:24.394Z,60.25
2023-03-10T03:05:53.279Z,60.18
2023-03-10T03:08:21.300Z,60.08
2023-03-10T03:10:49.570Z,59.97
2023-03-10T03:13:17.406Z,60.15
2023-03-10T03:15:46.729Z,59.93
2023-03-10T03:18:14.549Z,60.11
2023-03-10T03:20:43.207Z,60.18
2023-03-10T03:23:13.160Z,59.89
2023-03-10T03:25:43.023Z,59.70
2023-03-10T03:28:13.897Z,60.03
2023-03-10T03:30:46.920Z,60.35
2023-03-10T03:33:15.354Z,59.89
2023-03-10T03:35:44.948Z,59.61
2023-03-10T03:38:14.270Z,60.08
2023-03-10T03:40:42.360Z,59.76
2023-03-10T03:43:13.133Z,59.58
2023-03-10T03:45:41.618Z,59.61
2023-03-10T03:48:14.027Z,60.24
2023-03-10T03:50:43.016Z,59.57
2023-03-10T03:53:20.567Z,60.11
2023-03-10T03:55:50.944Z,59.92
2023-03-10T03:58:21.502Z,59.58
2023-03-10T04:00:51.890Z,59.79
2023-03-10T04:03:21.682Z,59.68
2023-03-10T04:05:52.684Z,59.92
2023-03-10T04:08:21.654Z,59.72
2023-03-10T04:10:52.137Z,59.85
2023-03-10T04:13:21.464Z,59.43
2023-03-10T04:15:50.147Z,59.56
2023-03-10T04:18:18.358Z,59.67
2023-03-10T04:20:47.540Z,59.70
2023-03-10T04:23:16.179Z,59.98
2023-03-10T04:25:44.826Z,59.57
2023-03-10T04:28:13.734Z,59.45
2023-03-10T04:30:43.106Z,59.37
2023-03-10T04:33:12.547Z,59.46
2023-03-10T04:35:42.694Z,59.55
2023-03-10T04:38:14.432Z,59.86
2023-03-10T04:40:42.370Z,59.41
2023-03-10T04:43:11.162Z,59.79
2023-03-10T04:45:39.170Z,59.45
2023-03-10T04:48:07.235Z,59.77
2023-03-10T04:50:35.050Z,59.51
2023-03-10T04:53:03.039Z,59.59
2023-03-10T04:55:33.964Z,59.46
2023-03-10T04:58:03.951Z,59.17
2023-03-10T05:00:32.174Z,59.68
2023-03-10T05:03:00.177Z,59.33
2023-03-10T05:05:28.100Z,59.73
2023-03-10T05:07:55.861Z,59.53
2023-03-10T05:10:23.613Z,59.44
2023-03-10T05:12:52.814Z,59.57
2023-03-10T05:15:20.630Z,59.58
2023-03-10T05:17:50.091Z,59.65
2023-03-10T05:20:18.956Z,59.56
2023-03-10T05:22:46.709Z,59.14
2023-03-10T05:25:14.411Z,59.23
2023-03-10T05:27:42.556Z,59.49
2023-03-10T05:30:15.465Z,59.46
2023-03-10T05:32:45.895Z,59.17
2023-03-10T05:35:14.473Z,59.05
2023-03-10T05:37:45.071Z,59.49
2023-03-10T05:40:15.918Z,59.28
2023-03-10T05:42:44.161Z,59.48
2023-03-10T05:45:14.883Z,59.36
2023-03-10T05:47:44.201Z,59.31
2023-03-10T05:50:14.219Z,59.25
2023-03-10T05:52:44.951Z,59.31
2023-03-10T05:55:15.628Z,59.25
2023-03-10T05:57:43.944Z,59.37
2023-03-10T06:00:15.291Z,59.00
2023-03-10T06:02:47.186Z,58.98
2023-03-10T06:05:15.141Z,58.94
2023-03-10T06:07:43.013Z,59.29
2023-03-10T06:10:11.737Z,59.41
2023-03-10T06:12:39.824Z,59.11
2023-03-10T06:15:09.799Z,58.90
2023-03-10T06:17:38.950Z,58.94
2023-03-10T06:20:07.168Z,59.17
2023-03-10T06:22:35.081Z,58.81
2023-03-10T06:25:02.926Z,59.15
2023-03-10T06:27:31.033Z,58.90
2023-03-10T06:29:58.740Z,59.02
2023-03-10T06:32:26.859Z,59.11
2023-03-10T06:34:56.041Z,59.09
2023-03-10T06:37:23.899Z,58.66
2023-03-10T06:39:51.678Z,58.83
2023-03-10T06:42:19.623Z,58.95
2023-03-10T06:44:49.207Z,59.17
2023-03-10T06:47:17.089Z,58.89
2023-03-10T06:49:44.820Z,58.87
2023-03-10T06:52:13.990Z,59.05
2023-03-10T06:54:41.741Z,59.11
2023-03-10T06:57:09.511Z,58.73
2023-03-10T06:59:37.328Z,58.97
2023-03-10T07:02:05.170Z,59.15
2023-03-10T07:04:32.984Z,58.93
2023-03-10T07:07:17.582Z,59.09
2023-03-10T07:09:46.174Z,58.71
2023-03-10T07:12:14.132Z,58.62
2023-03-10T07:14:41.905Z,59.08
2023-03-10T07:17:09.780Z,58.74
2023-03-10T07:19:38.175Z,59.11
2023-03-10T07:22:05.999Z,59.26
2023-03-10T07:24:35.462Z,59.21
2023-03-10T07:27:03.996Z,59.25
2023-03-10T07:29:31.902Z,58.93
2023-03-10T07:31:59.766Z,59.17
2023-03-10T07:34:27.619Z,59.05
2023-03-10T07:36:55.354Z,59.45
2023-03-10T07:39:23.194Z,59.46
2023-03-10T07:41:52.288Z,59.02
2023-03-10T07:44:20.044Z,59.14
2023-03-10T07:46:48.068Z,59.09
2023-03-10T07:49:15.882Z,59.03
2023-03-10T07:51:43.645Z,59.50
2023-03-10T07:54:13.631Z,59.43
2023-03-10T07:56:41.383Z,59.70
2023-03-10T07:59:10.557Z,59.71
2023-03-10T08:01:39.047Z,59.41
2023-03-10T08:04:08.072Z,59.86
2023-03-10T08:06:36.759Z,59.45
2023-03-10T08:09:04.688Z,59.36
2023-03-10T08:11:32.429Z,59.28
2023-03-10T08:14:00.387Z,59.40
2023-03-10T08:16:29.652Z,59.65
2023-03-10T08:18:57.434Z,59.77
2023-03-10T08:21:25.445Z,59.59
2023-03-10T08:23:53.290Z,59.72
2023-03-10T08:26:21.214Z,59.29
2023-03-10T08:28:49.649Z,59.41
2023-03-10T08:31:20.169Z,59.47
2023-03-10T08:33:50.054Z,59.19
2023-03-10T08:36:19.654Z,59.26
2023-03-10T08:38:47.775Z,59.47
2023-03-10T08:41:17.303Z,59.30
2023-03-10T08:43:48.492Z,59.58
2023-03-10T08:46:18.164Z,59.53
2023-03-10T08:48:46.404Z,59.62
2023-03-10T08:51:16.750Z,59.74
2023-03-10T08:53:47.180Z,59.49
2023-03-10T08:56:15.492Z,59.21
2023-03-10T08:58:43.779Z,59.68
2023-03-10T09:01:11.938Z,59.19
2023-03-10T09:03:42.014Z,59.29
2023-03-10T09:06:10.205Z,59.51
2023-03-10T09:08:41.248Z,59.79
2023-03-10T09:11:10.172Z,59.61
2023-03-10T09:13:37.960Z,59.10
2023-03-10T09:16:06.364Z,59.29
2023-03-10T09:18:34.208Z,59.15
2023-03-10T09:21:02.444Z,59.48
2023-03-10T09:23:30.214Z,59.23
2023-03-10T09:25:59.469Z,59.08
2023-03-10T09:28:27.214Z,59.56
2023-03-10T09:30:55.142Z,59.33
2023-03-10T09:33:23.780Z,59.34
2023-03-10T09:36:06.040Z,59.21
2023-03-10T09:38:34.667Z,59.08
2023-03-10T09:41:22.164Z,58.56
2023-03-10T09:44:00.354Z,58.25
2023-03-10T09:46:37.139Z,58.73
2023-03-10T09:49:14.143Z,58.40
2023-03-10T09:51:46.225Z,58.30
2023-03-10T09:54:33.634Z,57.98
2023-03-10T09:57:04.308Z,58.52
2023-03-10T09:59:36.546Z,58.04
2023-03-10T10:02:17.214Z,57.60
2023-03-10T10:04:48.992Z,57.88
2023-03-10T10:07:21.156Z,57.99
2023-03-10T10:09:55.303Z,58.27
2023-03-10T10:12:27.071Z,58.09
2023-03-10T10:14:58.839Z,57.70
2023-03-10T10:17:56.430Z,57.10
2023-03-10T10:20:34.970Z,57.98
2023-03-10T10:23:02.756Z,57.65
2023-03-10T10:25:32.472Z,58.13
2023-03-10T10:28:06.296Z,57.85
2023-03-10T10:30:38.003Z,57.71
2023-03-10T10:33:07.657Z,57.85
2023-03-10T10:35:37.713Z,57.27
2023-03-10T10:38:07.771Z,57.43
2023-03-10T10:40:37.327Z,57.54
2023-03-10T10:43:07.682Z,57.34
2023-03-10T10:45:37.993Z,57.07
2023-03-10T10:48:06.780Z,56.53
2023-03-10T10:50:36.127Z,56.51
2023-03-10T10:53:20.918Z,55.96
2023-03-10T10:56:01.438Z,55.29
2023-03-10T10:58:33.763Z,55.80
2023-03-10T11:01:03.731Z,56.19
2023-03-10T11:03:34.207Z,56.07
2023-03-10T11:06:03.041Z,56.13
2023-03-10T11:08:37.596Z,55.62
2023-03-10T11:11:19.702Z,55.67
2023-03-10T11:14:05.207Z,55.54
2023-03-10T11:16:44.102Z,55.49
2023-03-10T11:19:22.858Z,55.54
2023-03-10T11:21:55.826Z,55.90
2023-03-10T11:24:33.097Z,55.74
2023-03-10T11:27:08.981Z,56.26
2023-03-10T11:29:56.454Z,56.23
2023-03-10T11:32:29.936Z,55.94
2023-03-10T11:34:58.266Z,56.40
2023-03-10T11:37:31.731Z,56.14
2023-03-10T11:40:15.833Z,56.66
2023-03-10T11:42:49.988Z,56.15
2023-03-10T11:45:28.497Z,56.74
2023-03-10T11:48:07.039Z,56.49
2023-03-10T11:50:44.523Z,56.28
2023-03-10T11:53:18.362Z,56.76
2023-03-10T11:55:46.893Z,56.59
2023-03-10T11:58:24.311Z,56.41
2023-03-10T12:00:55.376Z,56.26
2023-03-10T12:03:39.611Z,56.24
2023-03-10T12:06:11.595Z,56.27
2023-03-10T12:08:41.491Z,56.77
2023-03-10T12:11:17.795Z,57.16
2023-03-10T12:13:48.883Z,56.83
2023-03-10T12:16:23.487Z,56.90
2023-03-10T12:18:51.523Z,57.12
2023-03-10T12:21:22.001Z,57.05
2023-03-10T12:23:51.803Z,57.23
2023-03-10T12:26:57.873Z,57.63
2023-03-10T12:29:43.193Z,57.58
2023-03-10T12:32:42.872Z,58.00
2023-03-10T12:35:37.592Z,57.64
2023-03-10T12:38:39.157Z,57.79
2023-03-10T12:41:07.407Z,57.70
2023-03-10T12:43:54.783Z,58.10
2023-03-10T12:46:28.145Z,57.97
2023-03-10T12:49:07.622Z,58.04
2023-03-10T12:51:41.566Z,57.79
2023-03-10T12:54:32.099Z,57.86
2023-03-10T12:57:09.928Z,57.80
2023-03-10T12:59:43.095Z,57.64
2023-03-10T13:02:24.957Z,57.65
2023-03-10T13:05:00.358Z,57.78
2023-03-10T13:07:29.343Z,57.82
2023-03-10T13:09:58.943Z,57.95
2023-03-10T13:12:31.041Z,57.49
2023-03-10T13:15:04.177Z,58.21
2023-03-10T13:17:33.931Z,57.94
2023-03-10T13:20:07.212Z,58.10
2023-03-10T13:22:35.836Z,57.74
2023-03-10T13:25:06.361Z,58.19
2023-03-10T13:27:35.524Z,58.07
2023-03-10T13:30:05.683Z,57.76
2023-03-10T13:32:34.470Z,58.09
2023-03-10T13:35:22.572Z,58.47
2023-03-10T13:38:10.470Z,58.48
2023-03-10T13:40:40.733Z,58.14
2023-03-10T13:43:26.438Z,57.83
2023-03-10T13:45:55.990Z,58.28
2023-03-10T13:48:24.964Z,58.26
2023-03-10T13:51:07.420Z,58.69
2023-03-10T13:53:35.340Z,57.95
2023-03-10T13:56:15.879Z,58.82
2023-03-10T13:58:44.110Z,58.18
2023-03-10T14:01:18.703Z,58.46
2023-03-10T14:03:51.197Z,58.33
2023-03-10T14:06:21.168Z,58.13
2023-03-10T14:08:48.941Z,57.98
2023-03-10T14:11:42.012Z,57.11
2023-03-10T14:14:12.180Z,57.13
2023-03-10T14:16:48.612Z,56.60
2023-03-10T14:19:38.388Z,56.16
2023-03-10T14:22:23.094Z,55.93
2023-03-10T14:24:50.988Z,56.09
2023-03-10T14:27:18.892Z,56.30
2023-03-10T14:29:51.009Z,56.39
2023-03-10T14:32:19.328Z,56.04
2023-03-10T14:34:47.166Z,56.03
2023-03-10T14:37:16.451Z,56.20
2023-03-10T14:39:44.367Z,55.73
2023-03-10T14:42:20.830Z,55.11
2023-03-10T14:44:50.233Z,55.06
2023-03-10T14:47:18.995Z,54.97
2023-03-10T14:49:47.069Z,54.73
2023-03-10T14:52:18.529Z,54.54
2023-03-10T14:54:47.289Z,54.95
2023-03-10T14:57:21.284Z,54.14
2023-03-10T14:59:49.728Z,54.72
2023-03-10T15:02:21.962Z,54.78
2023-03-10T15:04:49.814Z,54.75
2023-03-10T15:07:19.199Z,54.26
2023-03-10T15:09:47.006Z,54.28
2023-03-10T15:12:18.040Z,54.26
2023-03-10T15:14:53.171Z,53.75
2023-03-10T15:17:21.494Z,54.23
2023-03-10T15:19:49.404Z,53.99
2023-03-10T15:22:17.218Z,53.86
2023-03-10T15:24:46.344Z,53.72
2023-03-10T15:27:14.812Z,53.81
2023-03-10T15:29:42.639Z,53.79
2023-03-10T15:32:10.544Z,53.96
2023-03-10T15:34:38.341Z,53.60
2023-03-10T15:37:08.134Z,53.85
2023-03-10T15:39:37.447Z,54.00
2023-03-10T15:42:06.904Z,53.84
2023-03-10T15:44:34.724Z,53.76
2023-03-10T15:47:02.572Z,53.68
2023-03-10T15:49:30.365Z,53.75
2023-03-10T15:51:58.537Z,53.62
2023-03-10T15:54:26.421Z,53.62
2023-03-10T15:56:54.201Z,53.70
2023-03-10T15:59:23.372Z,53.55
2023-03-10T16:01:52.478Z,53.42
2023-03-10T16:04:20.490Z,53.64
2023-03-10T16:06:48.465Z,53.42
2023-03-10T16:09:16.611Z,53.99
2023-03-10T16:11:44.365Z,53.96
2023-03-10T16:14:12.153Z,54.08
2023-03-10T16:16:41.502Z,53.69
2023-03-10T16:19:09.298Z,53.74
2023-03-10T16:21:37.046Z,53.43
2023-03-10T16:24:04.963Z,53.46
2023-03-10T16:26:32.721Z,53.13
2023-03-10T16:29:00.478Z,52.73
2023-03-10T16:31:28.783Z,52.02
2023-03-10T16:33:58.350Z,51.84
2023-03-10T16:36:28.497Z,51.41
2023-03-10T16:38:56.661Z,51.12
2023-03-10T16:41:25.888Z,51.12
2023-03-10T16:43:55.289Z,50.54
2023-03-10T16:46:25.892Z,50.21
2023-03-10T16:48:55.496Z,49.94
2023-03-10T16:51:28.516Z,49.56
2023-03-10T16:53:58.070Z,50.08
2023-03-10T16:56:27.806Z,49.37
2023-03-10T16:58:56.247Z,49.18
2023-03-10T17:01:24.984Z,49.22
2023-03-10T17:03:53.607Z,48.70
2023-03-10T17:06:23.484Z,48.41
2023-03-10T17:08:53.606Z,48.63
2023-03-10T17:11:23.964Z,49.17
2023-03-10T17:13:53.921Z,48.87
2023-03-10T17:16:24.401Z,49.12
2023-03-10T17:18:52.327Z,49.40
2023-03-10T17:21:22.765Z,49.38
2023-03-10T17:23:52.318Z,49.25
2023-03-10T17:26:20.903Z,49.40
2023-03-10T17:28:51.190Z,49.12
2023-03-10T17:31:23.596Z,48.85
2023-03-10T17:33:51.443Z,48.89
2023-03-10T17:36:20.274Z,48.50
2023-03-10T17:38:48.226Z,48.81
2023-03-10T17:41:17.528Z,48.34
2023-03-10T17:43:45.844Z,48.54
2023-03-10T17:46:16.067Z,48.40
2023-03-10T17:48:44.205Z,48.48
2023-03-10T17:51:16.470Z,48.02
2023-03-10T17:53:46.459Z,48.16
2023-03-10T17:56:16.201Z,48.22
2023-03-10T17:58:45.418Z,48.09
2023-03-10T18:01:18.490Z,48.25
2023-03-10T18:03:48.372Z,48.63
2023-03-10T18:06:18.541Z,48.18
2023-03-10T18:08:46.701Z,48.41
2023-03-10T18:11:14.559Z,48.40
2023-03-10T18:13:42.647Z,48.61
2023-03-10T18:16:17.536Z,47.50
2023-03-10T18:18:45.961Z,48.35
2023-03-10T18:21:15.847Z,48.04
2023-03-10T18:23:44.751Z,48.22
2023-03-10T18:26:14.568Z,48.05
2023-03-10T18:28:42.699Z,48.17
2023-03-10T18:31:21.631Z,48.16
2023-03-10T18:33:49.844Z,48.40
2023-03-10T18:36:20.131Z,48.38
2023-03-10T18:38:48.983Z,48.43
2023-03-10T18:41:19.371Z,48.34
2023-03-10T18:43:47.752Z,48.56
2023-03-10T18:46:17.135Z,48.81
2023-03-10T18:48:44.988Z,48.76
2023-03-10T18:51:13.629Z,48.68
2023-03-10T18:53:42.016Z,48.81
2023-03-10T18:56:11.113Z,48.95
2023-03-10T18:58:38.969Z,48.45
2023-03-10T19:01:10.908Z,48.08
2023-03-10T19:03:40.666Z,48.80
2023-03-10T19:06:09.517Z,48.53
2023-03-10T19:08:39.033Z,48.52
2023-03-10T19:11:07.836Z,48.34
2023-03-10T19:13:40.347Z,48.22
2023-03-10T19:16:09.264Z,48.43
2023-03-10T19:18:37.119Z,48.52
2023-03-10T19:21:06.980Z,47.92
2023-03-10T19:23:35.097Z,48.31
2023-03-10T19:26:03.131Z,48.50
2023-03-10T19:28:31.450Z,48.31
2023-03-10T19:30:59.461Z,48.55
2023-03-10T19:33:27.352Z,48.57
2023-03-10T19:36:01.447Z,47.89
2023-03-10T19:38:30.884Z,48.34
2023-03-10T19:40:58.743Z,48.39
2023-03-10T19:43:26.622Z,48.32
2023-03-10T19:46:00.520Z,47.91
2023-03-10T19:48:29.239Z,48.27
2023-03-10T19:50:58.450Z,48.27
2023-03-10T19:53:28.305Z,48.35
2023-03-10T19:55:58.935Z,48.29
2023-03-10T19:58:27.780Z,48.83
2023-03-10T20:00:57.845Z,48.61
2023-03-10T20:03:27.418Z,48.53
2023-03-10T20:05:56.066Z,48.64
2023-03-10T20:08:24.819Z,48.76
2023-03-10T20:10:52.747Z,48.61
2023-03-10T20:13:21.958Z,48.31
2023-03-10T20:15:49.739Z,48.49
2023-03-10T20:18:18.591Z,48.32
2023-03-10T20:20:46.355Z,48.34
2023-03-10T20:23:14.996Z,48.46
2023-03-10T20:25:43.514Z,48.69
2023-03-10T20:28:11.755Z,48.52
2023-03-10T20:30:41.384Z,48.22
2023-03-10T20:33:09.641Z,48.60
2023-03-10T20:35:38.464Z,48.59
2023-03-10T20:38:06.317Z,48.57
2023-03-10T20:40:34.108Z,48.71
2023-03-10T20:43:02.139Z,48.43
2023-03-10T20:45:30.039Z,48.66
2023-03-10T20:47:59.391Z,48.27
2023-03-10T20:50:27.392Z,48.74
2023-03-10T20:52:55.323Z,48.87
2023-03-10T20:55:24.838Z,49.04
2023-03-10T20:57:54.570Z,48.87
2023-03-10T21:00:25.632Z,48.65
2023-03-10T21:02:57.007Z,48.31
2023-03-10T21:05:27.941Z,48.55
2023-03-10T21:07:56.166Z,48.72
2023-03-10T21:10:25.970Z,48.63
2023-03-10T21:12:53.909Z,49.05
2023-03-10T21:15:21.828Z,49.04
2023-03-10T21:17:49.995Z,49.04
2023-03-10T21:20:21.006Z,48.72
2023-03-10T21:22:50.674Z,48.54
2023-03-10T21:25:22.989Z,48.39
2023-03-10T21:27:52.843Z,48.93
2023-03-10T21:30:24.320Z,48.68
2023-03-10T21:32:52.233Z,48.71
2023-03-10T21:35:23.337Z,48.91
2023-03-10T21:37:52.836Z,48.58
2023-03-10T21:40:21.506Z,48.59
2023-03-10T21:42:49.948Z,48.57
2023-03-10T21:45:20.003Z,48.21
2023-03-10T21:47:48.415Z,48.43
2023-03-10T21:50:17.175Z,48.50
2023-03-10T21:52:45.428Z,48.49
2023-03-10T21:55:19.454Z,48.27
2023-03-10T21:57:47.324Z,48.74
2023-03-10T22:02:58.403Z,48.52
2023-03-10T22:05:26.554Z,48.66
2023-03-10T22:07:55.894Z,48.41
2023-03-10T22:10:23.958Z,48.43
2023-03-10T22:12:51.832Z,48.53
2023-03-10T22:15:21.836Z,48.47
2023-03-10T22:17:50.302Z,48.62
2023-03-10T22:20:22.847Z,48.21
2023-03-10T22:22:50.909Z,48.75
2023-03-10T22:25:19.055Z,48.51
2023-03-10T22:27:51.406Z,48.11
2023-03-10T22:30:19.839Z,48.67
2023-03-10T22:32:47.706Z,48.58
2023-03-10T22:35:15.988Z,48.53
2023-03-10T22:37:45.480Z,48.40
2023-03-10T22:40:16.242Z,48.40
2023-03-10T22:42:45.169Z,48.55
2023-03-10T22:45:18.323Z,47.90
2023-03-10T22:47:46.570Z,48.50
2023-03-10T22:50:19.225Z,48.44
2023-03-10T22:52:48.835Z,48.35
2023-03-10T22:55:18.815Z,48.34
2023-03-10T22:57:46.656Z,48.52
2023-03-10T23:00:19.406Z,48.18
2023-03-10T23:02:47.840Z,48.47
2023-03-10T23:05:17.156Z,48.34
2023-03-10T23:07:45.310Z,48.25
2023-03-10T23:10:19.616Z,47.41
2023-03-10T23:12:47.522Z,48.28
2023-03-10T23:15:24.777Z,48.06
2023-03-10T23:17:54.446Z,48.32
2023-03-10T23:20:24.227Z,48.51
2023-03-10T23:22:52.159Z,48.33
2023-03-10T23:25:24.632Z,47.95
2023-03-10T23:27:52.779Z,48.42
2023-03-10T23:30:21.109Z,48.33
2023-03-10T23:32:51.469Z,48.20
2023-03-10T23:35:21.742Z,48.17
2023-03-10T23:37:49.744Z,48.20
2023-03-10T23:40:19.545Z,48.51
2023-03-10T23:42:48.712Z,48.26
2023-03-10T23:45:19.278Z,48.52
2023-03-10T23:47:47.971Z,48.45
2023-03-10T23:50:18.844Z,48.27
2023-03-10T23:52:47.462Z,48.49
2023-03-10T23:55:17.045Z,48.44
2023-03-10T23:57:44.883Z,48.35
